createdAt,value
2023-02-27T00:02:29.733Z,69.56
2023-02-27T00:05:34.791Z,70.01
2023-02-27T00:08:41.173Z,69.70
2023-02-27T00:11:45.644Z,68.69
2023-02-27T00:14:51.486Z,68.15
2023-02-27T00:17:57.943Z,68.75
2023-02-27T00:21:02.638Z,68.71
2023-02-27T00:24:09.293Z,68.71
2023-02-27T00:27:15.032Z,67.68
2023-02-27T00:30:20.665Z,67.47
2023-02-27T00:33:25.138Z,65.95
2023-02-27T00:36:28.921Z,65.86
2023-02-27T00:39:38.714Z,66.15
2023-02-27T00:42:42.750Z,65.58
2023-02-27T00:45:46.786Z,65.99
2023-02-27T00:48:50.378Z,65.86
2023-02-27T00:51:54.222Z,66.32
2023-02-27T00:54:59.762Z,64.80
2023-02-27T00:58:03.388Z,64.69
2023-02-27T01:01:08.935Z,65.05
2023-02-27T01:04:13.482Z,65.83
2023-02-27T01:07:17.111Z,65.37
2023-02-27T01:10:22.899Z,66.17
2023-02-27T01:13:26.495Z,66.12
2023-02-27T01:16:31.014Z,65.44
2023-02-27T01:19:35.951Z,65.73
2023-02-27T01:22:42.882Z,65.81
2023-02-27T01:25:52.049Z,65.93
2023-02-27T01:28:56.486Z,66.43
2023-02-27T01:32:00.084Z,66.58
2023-02-27T01:35:04.774Z,67.04
2023-02-27T01:38:08.515Z,67.71
2023-02-27T01:41:13.788Z,68.39
2023-02-27T01:44:17.347Z,67.39
2023-02-27T01:47:21.218Z,68.20
2023-02-27T01:50:25.948Z,68.66
2023-02-27T01:53:33.946Z,68.41
2023-02-27T01:56:39.686Z,68.78
2023-02-27T01:59:44.582Z,68.78
2023-02-27T02:02:56.431Z,69.20
2023-02-27T02:06:04.332Z,69.90
2023-02-27T02:09:10.919Z,70.29
2023-02-27T02:12:19.155Z,70.57
2023-02-27T02:15:33.133Z,70.92
2023-02-27T02:18:48.484Z,71.30
2023-02-27T02:22:34.140Z,72.36
2023-02-27T02:26:08.994Z,72.23
2023-02-27T02:29:49.258Z,72.14
2023-02-27T02:33:26.100Z,72.77
2023-02-27T02:37:06.188Z,72.88
2023-02-27T02:40:22.370Z,72.80
2023-02-27T02:43:31.779Z,73.59
2023-02-27T02:46:46.628Z,72.55
2023-02-27T02:49:58.479Z,73.03
2023-02-27T02:53:09.537Z,72.82
2023-02-27T02:56:23.286Z,73.53
2023-02-27T02:59:34.510Z,73.16
2023-02-27T03:02:43.882Z,73.02
2023-02-27T03:05:56.030Z,73.01
2023-02-27T03:09:05.941Z,73.45
2023-02-27T03:12:15.479Z,73.69
2023-02-27T03:15:23.616Z,73.72
2023-02-27T03:18:33.713Z,73.29
2023-02-27T03:21:47.653Z,73.91
2023-02-27T03:24:55.260Z,73.96
2023-02-27T03:28:04.061Z,74.60
2023-02-27T03:31:14.945Z,74.77
2023-02-27T03:34:24.112Z,74.75
2023-02-27T03:37:40.757Z,75.37
2023-02-27T03:40:54.091Z,75.08
2023-02-27T03:44:13.933Z,75.76
2023-02-27T03:47:17.770Z,75.53
2023-02-27T03:50:23.545Z,75.10
2023-02-27T03:53:33.506Z,74.96
2023-02-27T03:56:42.026Z,75.11
2023-02-27T03:59:47.137Z,75.60
2023-02-27T04:02:55.424Z,75.12
2023-02-27T04:06:21.682Z,74.81
2023-02-27T04:09:46.327Z,74.76
2023-02-27T04:13:15.346Z,74.89
2023-02-27T04:16:46.048Z,75.28
2023-02-27T04:20:17.297Z,75.47
2023-02-27T04:23:30.314Z,75.19
2023-02-27T04:26:43.916Z,76.12
2023-02-27T04:29:57.816Z,75.82
2023-02-27T04:33:10.301Z,76.33
2023-02-27T04:36:19.950Z,76.53
2023-02-27T04:39:28.225Z,77.04
2023-02-27T04:42:35.343Z,77.26
2023-02-27T04:45:41.614Z,77.18
2023-02-27T04:48:55.509Z,77.61
2023-02-27T04:52:06.153Z,77.61
2023-02-27T04:55:15.324Z,77.70
2023-02-27T04:58:25.003Z,77.84
2023-02-27T05:01:35.617Z,78.30
2023-02-27T05:04:44.749Z,77.81
2023-02-27T05:07:55.966Z,77.83
2023-02-27T05:11:05.841Z,77.75
2023-02-27T05:14:20.360Z,78.13
2023-02-27T05:17:31.311Z,77.97
2023-02-27T05:20:50.451Z,77.90
2023-02-27T05:24:07.936Z,77.85
2023-02-27T05:27:28.848Z,78.07
2023-02-27T05:30:38.298Z,78.03
2023-02-27T05:33:51.791Z,78.18
2023-02-27T05:37:03.429Z,78.12
2023-02-27T05:40:12.651Z,78.33
2023-02-27T05:43:22.712Z,77.93
2023-02-27T05:46:30.578Z,78.60
2023-02-27T05:49:40.842Z,79.19
2023-02-27T05:52:53.340Z,79.12
2023-02-27T05:56:03.730Z,78.56
2023-02-27T05:59:15.355Z,78.64
2023-02-27T06:02:20.218Z,78.67
2023-02-27T06:05:27.799Z,78.98
2023-02-27T06:08:33.429Z,78.91
2023-02-27T06:11:36.953Z,79.13
2023-02-27T06:14:40.596Z,78.90
2023-02-27T06:17:44.999Z,79.02
2023-02-27T06:20:50.187Z,79.49
2023-02-27T06:23:56.092Z,79.57
2023-02-27T06:27:00.582Z,79.70
2023-02-27T06:30:04.289Z,79.61
2023-02-27T06:33:08.000Z,79.81
2023-02-27T06:36:11.843Z,79.18
2023-02-27T06:39:17.271Z,79.60
2023-02-27T06:42:21.061Z,79.33
2023-02-27T06:45:25.915Z,79.14
2023-02-27T06:48:30.479Z,79.75
2023-02-27T06:51:34.294Z,79.37
2023-02-27T06:54:39.352Z,78.95
2023-02-27T06:57:43.329Z,79.21
2023-02-27T07:00:48.614Z,79.49
2023-02-27T07:03:54.308Z,79.16
2023-02-27T07:07:35.977Z,78.90
2023-02-27T07:10:26.592Z,79.07
2023-02-27T07:13:30.742Z,79.55
2023-02-27T07:16:36.941Z,79.59
2023-02-27T07:19:41.399Z,79.57
2023-02-27T07:22:46.892Z,78.85
2023-02-27T07:25:54.670Z,79.42
2023-02-27T07:29:03.424Z,79.63
2023-02-27T07:32:08.109Z,78.61
2023-02-27T07:35:14.460Z,78.35
2023-02-27T07:38:19.248Z,78.21
2023-02-27T07:41:30.379Z,78.44
2023-02-27T07:44:36.923Z,78.26
2023-02-27T07:47:42.193Z,77.92
2023-02-27T07:50:48.540Z,78.34
2023-02-27T07:53:52.274Z,78.54
2023-02-27T07:57:00.530Z,77.47
2023-02-27T08:00:06.563Z,76.90
2023-02-27T08:03:16.397Z,76.66
2023-02-27T08:06:25.958Z,77.23
2023-02-27T08:10:10.971Z,76.96
2023-02-27T08:13:59.140Z,76.25
2023-02-27T08:16:53.750Z,76.79
2023-02-27T08:19:58.244Z,76.75
2023-02-27T08:23:02.590Z,76.09
2023-02-27T08:26:07.160Z,76.27
2023-02-27T08:29:16.943Z,76.38
2023-02-27T08:32:23.987Z,76.42
2023-02-27T08:35:28.459Z,75.98
2023-02-27T08:38:35.795Z,76.56
2023-02-27T08:41:39.586Z,76.55
2023-02-27T08:44:44.687Z,76.33
2023-02-27T08:47:50.146Z,76.27
2023-02-27T08:50:54.625Z,75.96
2023-02-27T08:54:02.091Z,75.76
2023-02-27T08:57:06.659Z,76.28
2023-02-27T09:00:15.542Z,75.70
2023-02-27T09:03:21.536Z,75.34
2023-02-27T09:06:26.319Z,74.79
2023-02-27T09:09:32.202Z,75.23
2023-02-27T09:12:37.414Z,75.43
2023-02-27T09:15:43.356Z,75.29
2023-02-27T09:18:47.318Z,75.09
2023-02-27T09:21:54.566Z,74.84
2023-02-27T09:24:58.735Z,74.91
2023-02-27T09:28:07.188Z,74.04
2023-02-27T09:31:17.833Z,73.90
2023-02-27T09:34:27.354Z,74.87
2023-02-27T09:38:00.008Z,74.54
2023-02-27T09:41:06.477Z,75.03
2023-02-27T09:44:36.475Z,75.58
2023-02-27T09:47:54.399Z,75.06
2023-02-27T09:51:00.651Z,74.45
2023-02-27T09:54:07.267Z,74.41
2023-02-27T09:57:18.372Z,74.07
2023-02-27T10:00:39.539Z,72.92
2023-02-27T10:04:11.124Z,72.83
2023-02-27T10:07:21.192Z,71.90
2023-02-27T10:10:33.346Z,71.70
2023-02-27T10:13:57.139Z,69.87
2023-02-27T10:17:04.823Z,71.17
2023-02-27T10:20:18.328Z,69.77
2023-02-27T10:23:35.471Z,69.27
2023-02-27T10:26:42.972Z,69.43
2023-02-27T10:29:47.575Z,72.14
2023-02-27T10:32:55.674Z,72.11
2023-02-27T10:36:02.826Z,72.33
2023-02-27T10:39:09.120Z,71.45
2023-02-27T10:42:15.257Z,71.30
2023-02-27T10:45:18.927Z,70.98
2023-02-27T10:48:23.858Z,70.44
2023-02-27T10:51:31.531Z,71.06
2023-02-27T10:54:35.733Z,70.65
2023-02-27T10:57:43.871Z,69.70
2023-02-27T11:00:54.918Z,70.03
2023-02-27T11:03:58.768Z,68.91
2023-02-27T11:07:10.282Z,68.03
2023-02-27T11:10:20.518Z,66.41
2023-02-27T11:13:26.248Z,64.01
2023-02-27T11:16:29.869Z,65.42
2023-02-27T11:19:35.844Z,64.69
2023-02-27T11:22:42.285Z,65.23
2023-02-27T11:25:47.557Z,63.93
2023-02-27T11:29:08.596Z,64.26
2023-02-27T11:32:15.205Z,64.91
2023-02-27T11:35:25.847Z,65.60
2023-02-27T11:38:31.680Z,64.94
2023-02-27T11:41:36.456Z,66.40
2023-02-27T11:44:51.494Z,65.33
2023-02-27T11:48:01.439Z,67.35
2023-02-27T11:51:33.415Z,68.08
2023-02-27T11:54:42.339Z,68.81
2023-02-27T11:57:50.460Z,68.67
2023-02-27T12:00:57.318Z,70.50
2023-02-27T12:04:06.467Z,70.91
2023-02-27T12:07:17.713Z,69.59
2023-02-27T12:10:26.188Z,70.37
2023-02-27T12:13:33.113Z,68.60
2023-02-27T12:16:42.479Z,67.53
2023-02-27T12:19:54.712Z,64.16
2023-02-27T12:22:58.256Z,64.38
2023-02-27T12:26:08.251Z,62.34
2023-02-27T12:29:20.814Z,62.80
2023-02-27T12:32:28.115Z,61.87
2023-02-27T12:35:34.027Z,60.78
2023-02-27T12:38:38.444Z,61.42
2023-02-27T12:42:12.320Z,62.62
2023-02-27T12:45:27.940Z,63.83
2023-02-27T12:48:46.664Z,64.18
2023-02-27T12:52:00.737Z,64.49
2023-02-27T12:55:11.283Z,66.92
2023-02-27T12:58:36.601Z,69.04
2023-02-27T13:01:49.732Z,69.98
2023-02-27T13:05:09.160Z,69.11
2023-02-27T13:08:38.331Z,69.25
2023-02-27T13:11:53.644Z,67.81
2023-02-27T13:15:04.181Z,66.41
2023-02-27T13:18:28.499Z,65.53
2023-02-27T13:21:39.881Z,64.57
2023-02-27T13:24:48.256Z,64.35
2023-02-27T13:27:55.790Z,63.91
2023-02-27T13:31:11.183Z,66.17
2023-02-27T13:34:21.678Z,65.52
2023-02-27T13:37:25.337Z,64.98
2023-02-27T13:40:35.409Z,63.23
2023-02-27T13:43:51.499Z,62.18
2023-02-27T13:47:38.957Z,61.96
2023-02-27T13:50:53.600Z,61.72
2023-02-27T13:54:16.580Z,60.92
2023-02-27T13:57:24.409Z,60.51
2023-02-27T14:00:30.396Z,62.22
2023-02-27T14:03:36.395Z,61.66
2023-02-27T14:06:46.678Z,60.97
2023-02-27T14:10:01.668Z,63.08
2023-02-27T14:13:05.824Z,62.47
2023-02-27T14:16:11.355Z,63.20
2023-02-27T14:19:50.664Z,62.48
2023-02-27T14:23:20.700Z,62.73
2023-02-27T14:26:26.592Z,63.64
2023-02-27T14:29:35.404Z,62.52
2023-02-27T14:32:40.355Z,62.38
2023-02-27T14:35:51.563Z,63.67
2023-02-27T14:38:58.411Z,64.36
2023-02-27T14:42:17.837Z,61.44
2023-02-27T14:45:24.521Z,63.94
2023-02-27T14:48:30.017Z,63.05
2023-02-27T14:51:39.098Z,61.28
2023-02-27T14:54:45.349Z,59.62
2023-02-27T14:58:02.488Z,59.34
2023-02-27T15:01:10.003Z,60.02
2023-02-27T15:04:19.006Z,60.20
2023-02-27T15:07:26.962Z,60.83
2023-02-27T15:10:36.193Z,59.82
2023-02-27T15:13:44.337Z,60.61
2023-02-27T15:16:47.996Z,60.70
2023-02-27T15:19:54.817Z,61.94
2023-02-27T15:23:02.912Z,62.96
2023-02-27T15:26:08.024Z,62.04
2023-02-27T15:29:22.438Z,62.48
2023-02-27T15:32:30.119Z,63.39
2023-02-27T15:35:39.404Z,62.71
2023-02-27T15:38:45.321Z,61.77
2023-02-27T15:41:52.842Z,61.39
2023-02-27T15:44:59.758Z,62.37
2023-02-27T15:48:04.517Z,62.68
2023-02-27T15:51:11.417Z,62.74
2023-02-27T15:54:16.647Z,61.23
2023-02-27T15:57:21.744Z,62.18
2023-02-27T16:00:26.779Z,63.30
2023-02-27T16:03:34.324Z,62.06
2023-02-27T16:06:42.151Z,61.85
2023-02-27T16:09:51.926Z,61.84
2023-02-27T16:12:56.355Z,63.87
2023-02-27T16:16:02.086Z,64.33
2023-02-27T16:19:17.645Z,62.42
2023-02-27T16:22:22.996Z,63.26
2023-02-27T16:25:28.873Z,62.11
2023-02-27T16:28:34.522Z,62.92
2023-02-27T16:31:40.808Z,62.63
2023-02-27T16:34:46.623Z,62.48
2023-02-27T16:37:51.877Z,63.16
2023-02-27T16:40:56.910Z,63.41
2023-02-27T16:44:00.558Z,63.24
2023-02-27T16:47:04.220Z,64.01
2023-02-27T16:50:15.068Z,63.96
2023-02-27T16:53:20.407Z,63.14
2023-02-27T16:56:37.603Z,62.85
2023-02-27T16:59:44.178Z,63.37
2023-02-27T17:02:48.374Z,63.13
2023-02-27T17:05:54.135Z,63.33
2023-02-27T17:08:58.400Z,64.12
2023-02-27T17:12:03.538Z,64.75
2023-02-27T17:15:08.161Z,64.66
2023-02-27T17:18:11.727Z,64.78
2023-02-27T17:21:17.384Z,65.11
2023-02-27T17:24:22.090Z,64.86
2023-02-27T17:27:26.972Z,64.94
2023-02-27T17:30:31.458Z,64.61
2023-02-27T17:33:35.425Z,65.15
2023-02-27T17:36:39.805Z,65.33
2023-02-27T17:39:43.543Z,65.71
2023-02-27T17:42:50.099Z,66.17
2023-02-27T17:45:53.721Z,67.09
2023-02-27T17:49:00.847Z,66.50
2023-02-27T17:52:07.202Z,65.73
2023-02-27T17:55:12.237Z,66.07
2023-02-27T17:58:19.076Z,65.39
2023-02-27T18:01:26.345Z,64.96
2023-02-27T18:04:30.036Z,65.46
2023-02-27T18:07:35.773Z,64.33
2023-02-27T18:10:40.433Z,64.45
2023-02-27T18:13:48.164Z,64.43
2023-02-27T18:16:52.461Z,62.70
2023-02-27T18:19:58.096Z,63.88
2023-02-27T18:23:01.682Z,64.76
2023-02-27T18:26:06.044Z,64.06
2023-02-27T18:29:14.141Z,65.18
2023-02-27T18:32:18.394Z,65.00
2023-02-27T18:35:24.336Z,64.13
2023-02-27T18:38:29.880Z,65.08
2023-02-27T18:41:35.747Z,65.55
2023-02-27T18:44:41.486Z,62.85
2023-02-27T18:47:45.100Z,63.96
2023-02-27T18:50:51.526Z,63.74
2023-02-27T18:53:55.722Z,63.36
2023-02-27T18:57:00.838Z,63.71
2023-02-27T19:00:07.588Z,63.62
2023-02-27T19:03:12.032Z,63.07
2023-02-27T19:06:17.018Z,63.97
2023-02-27T19:09:22.101Z,64.86
2023-02-27T19:12:25.882Z,63.49
2023-02-27T19:15:30.875Z,64.03
2023-02-27T19:18:35.378Z,64.05
2023-02-27T19:21:39.680Z,62.84
2023-02-27T19:24:44.572Z,62.88
2023-02-27T19:27:48.110Z,62.88
2023-02-27T19:30:54.048Z,62.56
2023-02-27T19:33:57.728Z,63.47
2023-02-27T19:37:02.323Z,62.63
2023-02-27T19:40:08.751Z,61.91
2023-02-27T19:43:15.372Z,63.15
2023-02-27T19:46:23.934Z,64.21
2023-02-27T19:49:27.639Z,64.01
2023-02-27T19:52:32.094Z,63.25
2023-02-27T19:55:37.856Z,64.23
2023-02-27T19:58:42.493Z,64.92
2023-02-27T20:01:48.740Z,64.55
2023-02-27T20:04:55.365Z,64.61
2023-02-27T20:07:59.187Z,65.46
2023-02-27T20:11:05.750Z,65.73
2023-02-27T20:14:12.642Z,65.12
2023-02-27T20:17:19.035Z,65.19
2023-02-27T20:20:23.837Z,65.17
2023-02-27T20:23:29.269Z,65.25
2023-02-27T20:26:36.740Z,65.27
2023-02-27T20:29:41.711Z,65.81
2023-02-27T20:32:47.372Z,65.81
2023-02-27T20:35:52.149Z,66.08
2023-02-27T20:38:57.119Z,64.80
2023-02-27T20:42:22.415Z,65.71
2023-02-27T20:45:28.336Z,63.57
2023-02-27T20:48:34.823Z,62.63
2023-02-27T20:51:43.015Z,63.88
2023-02-27T20:54:47.800Z,64.49
2023-02-27T20:57:52.118Z,63.88
2023-02-27T21:01:16.194Z,64.28
2023-02-27T21:04:24.047Z,64.93
2023-02-27T21:07:29.022Z,64.27
2023-02-27T21:10:34.596Z,63.78
2023-02-27T21:13:38.567Z,64.52
2023-02-27T21:16:42.215Z,64.33
2023-02-27T21:19:50.304Z,63.51
2023-02-27T21:23:03.607Z,60.35
2023-02-27T21:26:10.613Z,60.37
2023-02-27T21:29:17.695Z,58.62
2023-02-27T21:32:21.843Z,59.78
2023-02-27T21:35:28.683Z,59.83
2023-02-27T21:38:32.673Z,57.93
2023-02-27T21:41:36.303Z,58.54
2023-02-27T21:44:40.033Z,58.16
2023-02-27T21:47:44.435Z,59.30
2023-02-27T21:50:50.895Z,57.35
2023-02-27T21:53:57.544Z,55.95
2023-02-27T21:57:03.282Z,53.40
2023-02-27T22:00:09.939Z,55.03
2023-02-27T22:03:14.583Z,53.78
2023-02-27T22:06:21.182Z,55.08
2023-02-27T22:09:24.772Z,54.34
2023-02-27T22:12:29.230Z,55.09
2023-02-27T22:15:32.785Z,58.34
2023-02-27T22:18:36.904Z,57.77
2023-02-27T22:21:42.041Z,57.96
2023-02-27T22:24:45.788Z,56.01
2023-02-27T22:27:49.705Z,56.34
2023-02-27T22:30:56.345Z,56.72
2023-02-27T22:34:02.279Z,56.15
2023-02-27T22:37:07.491Z,56.20
2023-02-27T22:40:12.241Z,55.61
2023-02-27T22:43:18.022Z,55.22
2023-02-27T22:46:26.472Z,56.30
2023-02-27T22:49:30.126Z,54.31
2023-02-27T22:52:37.587Z,53.78
2023-02-27T22:55:41.379Z,55.33
2023-02-27T22:58:47.998Z,53.89
2023-02-27T23:01:54.103Z,54.07
2023-02-27T23:04:57.769Z,53.89
2023-02-27T23:08:02.833Z,53.17
2023-02-27T23:11:07.494Z,52.28
2023-02-27T23:14:11.566Z,53.66
2023-02-27T23:17:15.082Z,54.57
2023-02-27T23:20:19.169Z,52.61
2023-02-27T23:23:24.095Z,54.48
2023-02-27T23:26:28.632Z,53.60
2023-02-27T23:29:32.314Z,52.59
2023-02-27T23:32:43.590Z,51.74
2023-02-27T23:35:47.346Z,53.80
2023-02-27T23:38:52.515Z,52.41
2023-02-27T23:41:56.043Z,53.02
2023-02-27T23:44:59.935Z,54.20
2023-02-27T23:48:04.066Z,53.91
2023-02-27T23:51:08.657Z,54.71
2023-02-27T23:54:13.560Z,54.62
2023-02-27T23:57:17.108Z,55.65
